createdAt,value
2022-09-05T00:00:24.464Z,5.30
2022-09-05T00:01:27.293Z,5.40
2022-09-05T00:02:24.579Z,5.70
2022-09-05T00:03:24.604Z,5.50
2022-09-05T00:04:25.871Z,5.30
2022-09-05T00:05:24.309Z,5.40
2022-09-05T00:06:24.309Z,6.00
2022-09-05T00:07:34.328Z,5.60
2022-09-05T00:08:25.291Z,5.70
2022-09-05T00:09:24.750Z,5.40
2022-09-05T00:10:24.251Z,5.60
2022-09-05T00:11:41.178Z,5.40
2022-09-05T00:12:25.218Z,5.50
2022-09-05T00:13:24.332Z,5.80
2022-09-05T00:14:57.256Z,5.50
2022-09-05T00:15:25.191Z,5.40
2022-09-05T00:16:24.218Z,5.60
2022-09-05T00:17:39.426Z,5.50
2022-09-05T00:21:51.172Z,5.60
2022-09-05T00:24:17.542Z,5.70
2022-09-05T00:24:17.571Z,5.80
2022-09-05T00:24:26.449Z,5.50
2022-09-05T00:24:29.712Z,5.80
2022-09-05T00:24:36.683Z,5.80
2022-09-05T00:24:42.307Z,5.60
2022-09-05T00:25:31.581Z,5.70
2022-09-05T00:26:25.045Z,5.80
2022-09-05T00:27:24.033Z,5.80
2022-09-05T00:28:26.786Z,5.70
2022-09-05T00:30:26.929Z,5.70
2022-09-05T00:31:08.970Z,5.90
2022-09-05T00:31:54.275Z,5.90
2022-09-05T00:32:25.031Z,5.90
2022-09-05T00:33:23.953Z,5.90
2022-09-05T00:34:23.935Z,5.80
2022-09-05T00:35:26.133Z,5.80
2022-09-05T00:36:23.908Z,6.10
2022-09-05T00:37:23.904Z,6.20
2022-09-05T00:38:26.231Z,5.80
2022-09-05T00:39:24.890Z,6.00
2022-09-05T00:40:23.893Z,5.90
2022-09-05T00:41:23.824Z,5.90
2022-09-05T00:42:23.823Z,6.10
2022-09-05T00:43:23.904Z,5.90
2022-09-05T00:44:23.829Z,6.20
2022-09-05T00:45:23.795Z,5.80
2022-09-05T00:46:23.848Z,5.80
2022-09-05T00:47:23.780Z,5.80
2022-09-05T00:48:23.790Z,5.70
2022-09-05T00:49:23.765Z,5.70
2022-09-05T00:50:23.738Z,5.90
2022-09-05T00:51:32.192Z,5.80
2022-09-05T00:52:24.717Z,6.60
2022-09-05T00:53:23.779Z,6.00
2022-09-05T00:54:32.672Z,5.80
2022-09-05T00:55:24.657Z,6.00
2022-09-05T00:56:23.666Z,5.70
2022-09-05T00:57:23.636Z,6.00
2022-09-05T00:58:23.627Z,6.00
2022-09-05T00:59:23.606Z,5.80
2022-09-05T01:00:23.863Z,5.90
2022-09-05T01:01:23.630Z,5.90
2022-09-05T01:02:23.691Z,6.30
2022-09-05T01:03:23.611Z,6.00
2022-09-05T01:04:23.549Z,6.00
2022-09-05T01:05:23.550Z,6.20
2022-09-05T01:06:23.520Z,6.20
2022-09-05T01:07:23.588Z,6.30
2022-09-05T01:08:23.509Z,6.20
2022-09-05T01:09:23.475Z,6.20
2022-09-05T01:10:23.758Z,6.40
2022-09-05T01:11:23.506Z,6.10
2022-09-05T01:12:23.429Z,6.40
2022-09-05T01:13:23.497Z,5.90
2022-09-05T01:14:23.419Z,6.20
2022-09-05T01:15:23.410Z,6.40
2022-09-05T01:16:23.539Z,6.30
2022-09-05T01:17:23.388Z,6.60
2022-09-05T01:18:23.359Z,6.00
2022-09-05T01:19:23.338Z,6.30
2022-09-05T01:20:23.349Z,6.20
2022-09-05T01:21:23.317Z,6.10
2022-09-05T01:22:23.309Z,6.40
2022-09-05T01:23:23.395Z,6.70
2022-09-05T01:24:27.719Z,6.20
2022-09-05T01:25:24.281Z,6.30
2022-09-05T01:26:23.270Z,6.50
2022-09-05T01:27:23.252Z,6.50
2022-09-05T01:29:16.604Z,6.20
2022-09-05T01:29:24.221Z,6.10
2022-09-05T01:30:23.217Z,6.30
2022-09-05T01:31:24.356Z,6.10
2022-09-05T01:32:23.193Z,6.00
2022-09-05T01:33:23.185Z,6.20
2022-09-05T01:34:31.794Z,6.20
2022-09-05T01:35:24.132Z,6.10
2022-09-05T01:36:23.141Z,6.00
2022-09-05T01:37:26.687Z,5.70
2022-09-05T01:38:24.097Z,5.90
2022-09-05T01:40:10.663Z,5.90
2022-09-05T01:40:24.165Z,6.50
2022-09-05T01:41:23.113Z,6.20
2022-09-05T01:42:23.088Z,6.10
2022-09-05T01:43:23.088Z,6.40
2022-09-05T01:44:23.032Z,6.00
2022-09-05T01:45:24.646Z,6.20
2022-09-05T01:46:25.292Z,6.00
2022-09-05T01:47:29.470Z,6.00
2022-09-05T01:48:24.014Z,6.10
2022-09-05T01:49:22.961Z,6.50
2022-09-05T01:50:22.951Z,6.00
2022-09-05T01:51:29.313Z,5.80
2022-09-05T01:52:23.921Z,6.60
2022-09-05T01:53:22.917Z,5.90
2022-09-05T01:54:25.089Z,6.40
2022-09-05T01:55:23.898Z,5.80
2022-09-05T01:56:22.871Z,5.80
2022-09-05T01:57:22.864Z,6.20
2022-09-05T01:58:22.847Z,6.20
2022-09-05T01:59:22.834Z,6.10
2022-09-05T02:00:22.833Z,6.40
2022-09-05T02:01:32.058Z,6.00
2022-09-05T02:02:23.905Z,6.10
2022-09-05T02:03:22.882Z,6.30
2022-09-05T02:04:22.765Z,6.20
2022-09-05T02:05:47.687Z,6.60
2022-09-05T02:06:23.742Z,6.30
2022-09-05T02:07:31.213Z,6.10
2022-09-05T02:08:23.724Z,6.20
2022-09-05T02:09:22.702Z,6.00
2022-09-05T02:10:22.702Z,6.10
2022-09-05T02:11:34.919Z,6.20
2022-09-05T02:12:23.694Z,6.00
2022-09-05T02:13:22.692Z,6.90
2022-09-05T02:14:27.049Z,6.10
2022-09-05T02:15:23.655Z,6.20
2022-09-05T02:16:22.658Z,6.30
2022-09-05T02:17:31.982Z,6.50
2022-09-05T02:18:23.582Z,6.20
2022-09-05T02:19:22.565Z,6.20
2022-09-05T02:20:23.719Z,6.60
2022-09-05T02:21:22.573Z,6.30
2022-09-05T02:22:22.557Z,6.20
2022-09-05T02:23:24.784Z,6.50
2022-09-05T02:24:23.525Z,6.30
2022-09-05T02:26:01.041Z,6.40
2022-09-05T02:26:23.504Z,6.80
2022-09-05T02:27:35.866Z,6.80
2022-09-05T02:28:23.478Z,6.50
2022-09-05T02:29:28.390Z,6.70
2022-09-05T02:30:23.426Z,6.80
2022-09-05T02:31:22.445Z,6.40
2022-09-05T02:32:22.423Z,6.90
2022-09-05T02:33:22.385Z,6.60
2022-09-05T02:34:22.395Z,6.60
2022-09-05T02:35:22.354Z,6.70
2022-09-05T02:36:22.347Z,7.00
2022-09-05T02:38:51.053Z,6.70
2022-09-05T02:39:51.947Z,6.70
2022-09-05T02:45:01.506Z,6.70
2022-09-05T02:45:03.661Z,6.80
2022-09-05T02:45:09.795Z,6.70
2022-09-05T02:45:10.273Z,6.50
2022-09-05T02:45:12.930Z,6.80
2022-09-05T02:45:16.769Z,6.90
2022-09-05T02:45:27.000Z,6.70
2022-09-05T02:46:22.325Z,6.80
2022-09-05T02:47:22.196Z,6.70
2022-09-05T02:48:22.195Z,6.50
2022-09-05T02:53:15.896Z,6.80
2022-09-05T02:53:41.246Z,6.60
2022-09-05T02:57:26.302Z,6.90
2022-09-05T02:57:27.164Z,6.90
2022-09-05T02:57:27.633Z,6.80
2022-09-05T02:57:33.267Z,6.70
2022-09-05T02:57:35.917Z,6.60
2022-09-05T02:57:38.792Z,6.60
2022-09-05T02:58:04.591Z,6.70
2022-09-05T02:58:23.098Z,6.30
2022-09-05T02:59:35.990Z,6.60
2022-09-05T03:00:23.886Z,6.70
2022-09-05T03:01:22.079Z,7.40
2022-09-05T03:02:26.552Z,7.00
2022-09-05T03:03:23.000Z,6.70
2022-09-05T03:04:21.989Z,6.90
2022-09-05T03:05:21.978Z,6.90
2022-09-05T03:06:32.150Z,6.70
2022-09-05T03:07:22.987Z,6.70
2022-09-05T03:08:21.994Z,7.10
2022-09-05T03:09:21.930Z,6.60
2022-09-05T03:10:26.801Z,6.70
2022-09-05T03:11:22.901Z,7.00
2022-09-05T03:12:28.692Z,7.20
2022-09-05T03:13:22.881Z,6.80
2022-09-05T03:14:21.880Z,7.00
2022-09-05T03:15:22.926Z,6.90
2022-09-05T03:16:21.921Z,6.90
2022-09-05T03:17:21.829Z,7.30
2022-09-05T03:18:21.828Z,7.30
2022-09-05T03:19:21.799Z,7.10
2022-09-05T03:20:21.779Z,6.90
2022-09-05T03:21:21.767Z,7.10
2022-09-05T03:22:22.394Z,7.30
2022-09-05T03:23:21.758Z,7.00
2022-09-05T03:24:21.781Z,7.10
2022-09-05T03:25:23.687Z,6.90
2022-09-05T03:26:21.721Z,7.00
2022-09-05T03:27:23.672Z,7.70
2022-09-05T03:28:22.740Z,7.00
2022-09-05T03:29:21.692Z,7.00
2022-09-05T03:30:21.672Z,7.20
2022-09-05T03:31:22.943Z,7.30
2022-09-05T03:32:21.639Z,7.20
2022-09-05T03:33:21.610Z,7.30
2022-09-05T03:34:21.592Z,7.20
2022-09-05T03:35:21.651Z,7.30
2022-09-05T03:36:21.588Z,7.10
2022-09-05T03:37:21.570Z,7.60
2022-09-05T03:38:21.587Z,7.30
2022-09-05T03:39:21.554Z,7.30
2022-09-05T03:40:21.530Z,7.30
2022-09-05T03:41:21.536Z,7.20
2022-09-05T03:42:21.503Z,7.30
2022-09-05T03:43:21.493Z,7.40
2022-09-05T03:44:21.594Z,7.40
2022-09-05T03:45:36.710Z,7.30
2022-09-05T03:46:22.492Z,7.20
2022-09-05T03:47:21.463Z,7.50
2022-09-05T03:48:28.619Z,7.30
2022-09-05T03:49:22.975Z,7.20
2022-09-05T03:55:03.292Z,6.90
2022-09-05T03:57:04.833Z,7.20
2022-09-05T03:57:14.197Z,7.40
2022-09-05T03:57:16.114Z,7.80
2022-09-05T03:57:19.610Z,7.30
2022-09-05T03:57:24.556Z,7.30
2022-09-05T03:57:27.547Z,7.30
2022-09-05T03:57:42.347Z,7.50
2022-09-05T03:58:28.124Z,7.40
2022-09-05T03:59:22.288Z,7.40
2022-09-05T04:00:21.304Z,7.80
2022-09-05T04:02:59.952Z,8.10
2022-09-05T04:03:55.410Z,7.70
2022-09-05T04:08:06.199Z,7.80
2022-09-05T04:08:15.310Z,7.70
2022-09-05T04:08:16.871Z,7.60
2022-09-05T04:08:20.913Z,7.60
2022-09-05T04:08:26.624Z,7.80
2022-09-05T04:08:41.288Z,7.80
2022-09-05T04:09:37.092Z,8.20
2022-09-05T04:10:22.276Z,8.20
2022-09-05T04:11:21.134Z,7.80
2022-09-05T04:12:21.105Z,7.70
2022-09-05T04:13:21.124Z,7.90
2022-09-05T04:14:21.087Z,7.60
2022-09-05T04:15:21.075Z,7.60
2022-09-05T04:16:21.096Z,8.00
2022-09-05T04:17:21.065Z,7.60
2022-09-05T04:18:25.791Z,7.90
2022-09-05T04:19:22.027Z,7.70
2022-09-05T04:20:21.038Z,7.50
2022-09-05T04:21:21.014Z,8.10
2022-09-05T04:22:20.995Z,8.10
2022-09-05T04:23:20.971Z,7.80
2022-09-05T04:24:20.956Z,7.90
2022-09-05T04:25:20.976Z,7.80
2022-09-05T04:26:20.934Z,8.10
2022-09-05T04:27:20.946Z,8.10
2022-09-05T04:28:21.929Z,8.20
2022-09-05T04:29:20.913Z,8.10
2022-09-05T04:30:38.285Z,8.00
2022-09-05T04:31:21.901Z,8.10
2022-09-05T04:32:20.888Z,8.30
2022-09-05T04:33:33.448Z,8.30
2022-09-05T04:34:21.847Z,8.20
2022-09-05T04:35:20.813Z,8.20
2022-09-05T04:36:20.827Z,8.10
2022-09-05T04:37:20.802Z,8.10
2022-09-05T04:38:20.863Z,8.60
2022-09-05T04:39:20.865Z,7.90
2022-09-05T04:40:20.769Z,8.10
2022-09-05T04:41:21.342Z,8.10
2022-09-05T04:42:21.739Z,7.80
2022-09-05T04:43:20.729Z,7.90
2022-09-05T04:44:20.735Z,8.00
2022-09-05T04:45:24.147Z,7.90
2022-09-05T04:46:20.745Z,8.40
2022-09-05T04:47:20.656Z,8.00
2022-09-05T04:48:21.538Z,8.00
2022-09-05T04:49:20.636Z,8.50
2022-09-05T04:50:23.553Z,8.10
2022-09-05T04:51:20.635Z,8.00
2022-09-05T04:52:31.155Z,8.30
2022-09-05T04:53:21.611Z,8.40
2022-09-05T04:54:20.619Z,8.30
2022-09-05T04:55:20.595Z,8.50
2022-09-05T04:56:20.547Z,8.00
2022-09-05T04:57:20.556Z,8.00
2022-09-05T04:58:20.522Z,8.10
2022-09-05T05:01:03.081Z,8.40
2022-09-05T05:03:33.338Z,8.00
2022-09-05T05:06:00.769Z,8.80
2022-09-05T05:06:06.083Z,7.80
2022-09-05T05:06:09.582Z,7.80
2022-09-05T05:06:11.230Z,7.70
2022-09-05T05:06:11.536Z,8.00
2022-09-05T05:06:38.317Z,7.80
2022-09-05T05:07:21.522Z,8.10
2022-09-05T05:08:37.824Z,8.10
2022-09-05T05:09:21.389Z,7.90
2022-09-05T05:10:54.057Z,7.70
2022-09-05T05:11:21.374Z,8.00
2022-09-05T05:17:55.923Z,7.90
2022-09-05T05:17:56.980Z,8.10
2022-09-05T05:17:58.463Z,7.80
2022-09-05T05:18:11.988Z,7.60
2022-09-05T05:18:13.104Z,7.80
2022-09-05T05:18:15.330Z,8.20
2022-09-05T05:18:42.392Z,7.60
2022-09-05T05:19:22.243Z,7.90
2022-09-05T05:20:42.578Z,7.60
2022-09-05T05:21:21.235Z,7.80
2022-09-05T05:22:20.227Z,7.90
2022-09-05T05:23:20.210Z,7.70
2022-09-05T05:24:21.821Z,7.60
2022-09-05T05:25:20.181Z,7.80
2022-09-05T05:26:20.161Z,8.40
2022-09-05T05:27:20.139Z,7.60
2022-09-05T05:28:24.391Z,7.60
2022-09-05T05:29:21.110Z,7.90
2022-09-05T05:30:20.133Z,7.60
2022-09-05T05:31:20.149Z,7.70
2022-09-05T05:32:24.834Z,7.60
2022-09-05T05:33:21.070Z,7.30
2022-09-05T05:34:23.973Z,7.50
2022-09-05T05:35:20.041Z,7.40
2022-09-05T05:36:20.063Z,7.30
2022-09-05T05:37:20.022Z,7.50
2022-09-05T05:38:20.048Z,7.50
2022-09-05T05:39:20.014Z,7.30
2022-09-05T05:40:19.981Z,7.30
2022-09-05T05:41:19.982Z,7.20
2022-09-05T05:42:20.714Z,7.10
2022-09-05T05:43:19.949Z,7.10
2022-09-05T05:44:19.929Z,7.90
2022-09-05T05:45:19.923Z,7.50
2022-09-05T05:46:20.032Z,7.20
2022-09-05T05:47:28.400Z,8.00
2022-09-05T05:48:21.750Z,7.00
2022-09-05T05:49:19.863Z,7.70
2022-09-05T05:50:19.873Z,7.10
2022-09-05T05:51:19.852Z,6.90
2022-09-05T05:52:20.834Z,7.30
2022-09-05T05:53:29.003Z,7.20
2022-09-05T05:54:20.799Z,7.10
2022-09-05T05:55:50.482Z,7.00
2022-09-05T05:56:20.789Z,7.80
2022-09-05T05:57:19.762Z,7.60
2022-09-05T05:58:19.768Z,7.20
2022-09-05T05:59:24.046Z,7.30
2022-09-05T06:00:27.341Z,7.50
2022-09-05T06:01:27.310Z,6.80
2022-09-05T06:02:20.785Z,7.10
2022-09-05T06:03:26.756Z,7.50
2022-09-05T06:04:20.681Z,7.40
2022-09-05T06:05:19.666Z,7.30
2022-09-05T06:06:19.654Z,7.20
2022-09-05T06:07:19.634Z,7.40
2022-09-05T06:12:29.376Z,7.10
2022-09-05T06:14:51.352Z,7.00
2022-09-05T06:14:52.371Z,7.30
2022-09-05T06:14:55.063Z,7.10
2022-09-05T06:14:57.995Z,6.90
2022-09-05T06:15:00.625Z,6.90
2022-09-05T06:15:03.767Z,7.30
2022-09-05T06:15:23.134Z,7.30
2022-09-05T06:16:19.560Z,7.20
2022-09-05T06:17:23.503Z,6.70
2022-09-05T06:19:47.003Z,6.40
2022-09-05T06:20:31.603Z,6.50
2022-09-05T06:22:08.928Z,7.00
2022-09-05T06:22:31.590Z,6.90
2022-09-05T06:23:39.411Z,7.30
2022-09-05T06:24:31.562Z,7.00
2022-09-05T06:25:30.532Z,6.80
2022-09-05T06:26:30.520Z,6.70
2022-09-05T06:27:30.507Z,6.50
2022-09-05T06:28:30.510Z,6.50
2022-09-05T06:29:34.594Z,6.60
2022-09-05T06:30:31.463Z,6.80
2022-09-05T06:31:31.871Z,6.70
2022-09-05T06:32:30.445Z,6.90
2022-09-05T06:33:30.456Z,6.70
2022-09-05T06:34:33.528Z,6.70
2022-09-05T06:35:31.445Z,6.80
2022-09-05T06:36:30.427Z,6.90
2022-09-05T06:37:30.385Z,6.60
2022-09-05T06:38:30.375Z,6.70
2022-09-05T06:39:30.370Z,6.60
2022-09-05T06:40:32.161Z,6.70
2022-09-05T06:41:30.315Z,6.50
2022-09-05T06:42:42.578Z,6.40
2022-09-05T06:43:31.296Z,6.80
2022-09-05T06:44:30.275Z,6.30
2022-09-05T06:45:30.383Z,6.50
2022-09-05T06:46:54.436Z,6.40
2022-09-05T06:47:33.780Z,6.00
2022-09-05T06:48:45.978Z,6.00
2022-09-05T06:49:37.281Z,6.10
2022-09-05T06:50:31.305Z,6.70
2022-09-05T06:51:31.198Z,6.40
2022-09-05T06:52:30.473Z,6.20
2022-09-05T06:53:30.212Z,5.80
2022-09-05T06:54:30.168Z,5.60
2022-09-05T06:55:30.135Z,5.90
2022-09-05T06:56:30.156Z,5.60
2022-09-05T06:57:30.115Z,5.50
2022-09-05T06:58:30.144Z,6.20
2022-09-05T06:59:30.097Z,6.00
2022-09-05T07:00:30.126Z,5.80
2022-09-05T07:01:44.750Z,5.70
2022-09-05T07:03:00.191Z,5.40
2022-09-05T07:03:32.475Z,5.70
2022-09-05T07:04:53.625Z,5.50
2022-09-05T07:05:38.456Z,5.50
2022-09-05T07:06:59.372Z,5.40
2022-09-05T07:07:31.007Z,5.50
2022-09-05T07:08:35.112Z,5.20
2022-09-05T07:09:30.969Z,5.10
2022-09-05T07:10:42.389Z,5.30
2022-09-05T07:11:30.938Z,5.50
2022-09-05T07:12:30.364Z,5.50
2022-09-05T07:13:29.940Z,5.30
2022-09-05T07:14:29.949Z,5.30
2022-09-05T07:15:29.892Z,5.10
2022-09-05T07:16:38.128Z,5.00
2022-09-05T07:17:30.877Z,5.30
2022-09-05T07:18:29.839Z,5.10
2022-09-05T07:19:29.840Z,5.30
2022-09-05T07:20:29.818Z,4.90
2022-09-05T07:21:29.801Z,4.90
2022-09-05T07:22:47.645Z,5.00
2022-09-05T07:24:02.342Z,4.90
2022-09-05T07:24:54.336Z,4.60
2022-09-05T07:25:35.801Z,4.90
2022-09-05T07:26:42.050Z,4.90
2022-09-05T07:27:30.740Z,4.50
2022-09-05T07:28:30.537Z,5.00
2022-09-05T07:29:29.780Z,4.90
2022-09-05T07:30:29.680Z,4.70
2022-09-05T07:31:38.079Z,5.10
2022-09-05T07:32:30.657Z,5.10
2022-09-05T07:33:29.651Z,4.40
2022-09-05T07:34:29.622Z,4.50
2022-09-05T07:35:29.643Z,4.80
2022-09-05T07:36:29.614Z,4.30
2022-09-05T07:37:29.606Z,4.50
2022-09-05T07:38:40.059Z,4.80
2022-09-05T07:39:30.615Z,4.70
2022-09-05T07:40:29.704Z,4.70
2022-09-05T07:41:29.543Z,4.50
2022-09-05T07:42:29.534Z,4.40
2022-09-05T07:43:29.552Z,4.60
2022-09-05T07:44:29.504Z,4.40
2022-09-05T07:45:29.527Z,4.30
2022-09-05T07:46:29.473Z,4.70
2022-09-05T07:47:29.462Z,4.30
2022-09-05T07:48:35.019Z,4.60
2022-09-05T07:49:31.097Z,4.60
2022-09-05T07:52:51.160Z,4.00
2022-09-05T07:56:47.080Z,4.40
2022-09-05T07:56:52.335Z,4.40
2022-09-05T07:56:53.302Z,4.60
2022-09-05T07:57:01.036Z,4.00
2022-09-05T07:57:02.495Z,4.20
2022-09-05T07:57:04.128Z,4.40
2022-09-05T07:57:32.029Z,4.30
2022-09-05T07:58:29.325Z,4.30
2022-09-05T07:59:29.311Z,4.10
2022-09-05T08:00:29.737Z,3.60
2022-09-05T08:01:29.338Z,4.20
2022-09-05T08:02:29.254Z,3.90
2022-09-05T08:03:29.251Z,4.10
2022-09-05T08:04:29.240Z,4.40
2022-09-05T08:05:35.284Z,4.10
2022-09-05T08:07:11.952Z,4.30
2022-09-05T08:07:49.478Z,4.40
2022-09-05T08:08:30.198Z,3.90
2022-09-05T08:10:08.782Z,4.00
2022-09-05T08:10:35.701Z,4.10
2022-09-05T08:11:30.146Z,3.90
2022-09-05T08:12:30.127Z,4.20
2022-09-05T08:13:30.156Z,3.90
2022-09-05T08:14:44.633Z,4.00
2022-09-05T08:15:39.675Z,4.00
2022-09-05T08:16:30.145Z,4.00
2022-09-05T08:17:30.090Z,3.90
2022-09-05T08:18:29.049Z,4.30
2022-09-05T08:19:29.061Z,3.90
2022-09-05T08:20:29.029Z,4.20
2022-09-05T08:21:29.049Z,4.10
2022-09-05T08:22:28.997Z,3.90
2022-09-05T08:23:28.988Z,3.80
2022-09-05T08:24:28.998Z,3.70
2022-09-05T08:25:36.326Z,3.80
2022-09-05T08:26:29.946Z,3.60
2022-09-05T08:27:28.949Z,3.60
2022-09-05T08:28:35.382Z,3.40
2022-09-05T08:29:29.918Z,3.50
2022-09-05T08:30:28.975Z,3.80
2022-09-05T08:31:28.959Z,3.30
2022-09-05T08:32:33.346Z,3.20
2022-09-05T08:33:29.881Z,3.00
2022-09-05T08:34:44.134Z,3.60
2022-09-05T08:35:29.832Z,3.70
2022-09-05T08:36:28.821Z,3.20
2022-09-05T08:37:28.832Z,3.30
2022-09-05T08:38:28.803Z,2.90
2022-09-05T08:39:29.789Z,3.50
2022-09-05T08:40:28.760Z,3.10
2022-09-05T08:41:50.026Z,3.70
2022-09-05T08:42:29.743Z,3.70
2022-09-05T08:44:58.215Z,3.00
2022-09-05T08:46:42.505Z,3.10
2022-09-05T08:46:43.898Z,3.10
2022-09-05T08:46:46.978Z,3.20
2022-09-05T08:47:29.682Z,3.30
2022-09-05T08:48:29.687Z,3.40
2022-09-05T08:49:36.788Z,3.30
2022-09-05T08:50:29.674Z,3.50
2022-09-05T08:51:28.624Z,3.10
2022-09-05T08:52:28.613Z,3.30
2022-09-05T08:53:46.388Z,3.10
2022-09-05T08:54:29.594Z,3.00
2022-09-05T08:55:28.562Z,3.00
2022-09-05T08:56:28.553Z,3.20
2022-09-05T08:57:28.544Z,3.20
2022-09-05T08:58:28.524Z,3.20
2022-09-05T08:59:32.735Z,3.40
2022-09-05T09:00:31.546Z,3.10
2022-09-05T09:01:28.563Z,3.40
2022-09-05T09:02:47.356Z,3.30
2022-09-05T09:03:29.545Z,3.30
2022-09-05T09:05:01.857Z,3.60
2022-09-05T09:06:12.743Z,3.10
2022-09-05T09:06:29.433Z,3.50
2022-09-05T09:07:51.498Z,2.80
2022-09-05T09:08:29.396Z,3.20
2022-09-05T09:09:28.395Z,3.20
2022-09-05T09:10:28.386Z,2.90
2022-09-05T09:11:28.375Z,3.30
2022-09-05T09:12:28.358Z,3.10
2022-09-05T09:13:28.356Z,3.40
2022-09-05T09:14:30.927Z,3.20
2022-09-05T09:15:28.320Z,2.80
2022-09-05T09:16:28.373Z,2.70
2022-09-05T09:17:28.298Z,2.40
2022-09-05T09:18:35.394Z,2.50
2022-09-05T09:19:29.579Z,2.90
2022-09-05T09:20:28.238Z,2.70
2022-09-05T09:21:28.236Z,2.60
2022-09-05T09:22:28.247Z,2.30
2022-09-05T09:23:32.356Z,2.90
2022-09-05T09:24:28.207Z,2.40
2022-09-05T09:25:30.716Z,2.60
2022-09-05T09:26:29.157Z,2.30
2022-09-05T09:28:05.939Z,2.30
2022-09-05T09:28:47.884Z,2.20
2022-09-05T09:29:29.160Z,2.40
2022-09-05T09:30:28.110Z,2.70
2022-09-05T09:31:28.164Z,2.40
2022-09-05T09:32:28.110Z,2.30
2022-09-05T09:33:28.072Z,2.40
2022-09-05T09:34:28.071Z,2.60
2022-09-05T09:35:28.069Z,2.10
2022-09-05T09:36:28.030Z,2.10
2022-09-05T09:37:50.106Z,2.30
2022-09-05T09:38:29.000Z,2.10
2022-09-05T09:39:37.802Z,2.50
2022-09-05T09:40:29.000Z,2.20
2022-09-05T09:41:27.980Z,2.40
2022-09-05T09:42:32.818Z,3.00
2022-09-05T09:43:28.963Z,2.30
2022-09-05T09:44:27.943Z,2.20
2022-09-05T09:45:29.601Z,2.30
2022-09-05T09:46:28.008Z,2.20
2022-09-05T09:47:27.893Z,2.30
2022-09-05T09:48:27.873Z,2.30
2022-09-05T09:49:27.893Z,2.10
2022-09-05T09:50:27.935Z,2.20
2022-09-05T09:51:27.852Z,2.10
2022-09-05T09:52:27.852Z,1.90
2022-09-05T09:53:27.823Z,2.20
2022-09-05T09:54:27.803Z,2.20
2022-09-05T09:55:28.566Z,2.10
2022-09-05T09:56:27.777Z,2.20
2022-09-05T09:57:27.775Z,1.90
2022-09-05T09:58:29.257Z,2.00
2022-09-05T09:59:27.736Z,1.90
2022-09-05T10:00:27.723Z,1.90
2022-09-05T10:01:36.028Z,1.80
2022-09-05T10:03:48.415Z,1.90
2022-09-05T10:07:51.855Z,2.00
2022-09-05T10:10:36.258Z,1.90
2022-09-05T10:10:37.945Z,1.80
2022-09-05T10:10:38.534Z,1.90
2022-09-05T10:10:45.543Z,2.00
2022-09-05T10:10:46.659Z,1.80
2022-09-05T10:10:50.463Z,1.90
2022-09-05T10:10:59.079Z,2.00
2022-09-05T10:12:28.624Z,2.20
2022-09-05T10:13:27.609Z,2.00
2022-09-05T10:14:49.390Z,2.00
2022-09-05T10:15:31.559Z,2.20
2022-09-05T10:16:27.596Z,2.10
2022-09-05T10:17:27.512Z,1.70
2022-09-05T10:18:27.476Z,1.90
2022-09-05T10:20:29.565Z,2.00
2022-09-05T10:21:27.447Z,2.10
2022-09-05T10:22:36.718Z,1.80
2022-09-05T10:23:28.440Z,1.80
2022-09-05T10:24:27.439Z,1.80
2022-09-05T10:25:28.760Z,1.80
2022-09-05T10:26:27.518Z,1.70
2022-09-05T10:27:27.380Z,1.70
2022-09-05T10:28:27.371Z,1.70
2022-09-05T10:29:37.737Z,1.80
2022-09-05T10:30:43.482Z,1.80
2022-09-05T10:35:08.404Z,1.80
2022-09-05T10:35:09.032Z,1.50
2022-09-05T10:35:11.721Z,1.80
2022-09-05T10:35:12.936Z,1.80
2022-09-05T10:35:28.889Z,1.70
2022-09-05T10:36:27.277Z,1.60
2022-09-05T10:37:27.291Z,1.70
2022-09-05T10:38:27.222Z,1.50
2022-09-05T10:39:27.350Z,1.60
2022-09-05T10:40:27.210Z,1.50
2022-09-05T10:41:27.229Z,1.60
2022-09-05T10:42:27.180Z,1.40
2022-09-05T10:43:27.183Z,1.60
2022-09-05T10:44:27.190Z,1.40
2022-09-05T10:45:33.354Z,1.80
2022-09-05T10:46:49.685Z,1.70
2022-09-05T10:47:28.138Z,1.30
2022-09-05T10:48:27.095Z,1.60
2022-09-05T10:49:30.274Z,1.50
2022-09-05T10:50:27.066Z,1.50
2022-09-05T10:51:28.305Z,1.50
2022-09-05T10:52:27.074Z,1.40
2022-09-05T10:53:27.170Z,1.70
2022-09-05T10:54:28.018Z,1.70
2022-09-05T10:55:27.013Z,1.40
2022-09-05T10:56:28.486Z,1.40
2022-09-05T10:57:26.986Z,1.40
2022-09-05T11:00:28.503Z,1.40
2022-09-05T11:01:06.965Z,1.20
2022-09-05T11:02:21.115Z,1.20
2022-09-05T11:02:26.376Z,1.30
2022-09-05T11:02:36.780Z,1.40
2022-09-05T11:03:28.106Z,1.20
2022-09-05T11:04:26.893Z,1.20
2022-09-05T11:05:27.192Z,1.40
2022-09-05T11:06:26.907Z,1.20
2022-09-05T11:07:29.599Z,1.30
2022-09-05T11:08:26.827Z,1.30
2022-09-05T11:09:26.839Z,1.20
2022-09-05T11:10:26.808Z,1.10
2022-09-05T11:11:34.140Z,1.30
2022-09-05T11:12:27.797Z,1.00
2022-09-05T11:13:26.972Z,1.10
2022-09-05T11:14:27.402Z,1.00
2022-09-05T11:15:26.748Z,1.10
2022-09-05T11:16:26.750Z,1.20
2022-09-05T11:17:26.718Z,1.10
2022-09-05T11:18:30.358Z,1.30
2022-09-05T11:19:27.691Z,1.30
2022-09-05T11:20:34.538Z,1.10
2022-09-05T11:21:27.681Z,1.20
2022-09-05T11:22:26.661Z,1.10
2022-09-05T11:23:26.741Z,1.00
2022-09-05T11:24:27.513Z,1.20
2022-09-05T11:25:36.138Z,1.20
2022-09-05T11:26:27.612Z,1.10
2022-09-05T11:27:26.591Z,1.00
2022-09-05T11:28:26.580Z,1.20
2022-09-05T11:29:26.642Z,1.10
2022-09-05T11:30:29.165Z,1.00
2022-09-05T11:31:26.596Z,1.10
2022-09-05T11:37:58.403Z,1.00
2022-09-05T11:39:42.490Z,1.10
2022-09-05T11:39:52.236Z,1.10
2022-09-05T11:39:53.392Z,1.00
2022-09-05T11:39:56.166Z,0.90
2022-09-05T11:39:56.620Z,1.00
2022-09-05T11:40:00.590Z,1.00
2022-09-05T11:40:26.422Z,1.00
2022-09-05T11:40:45.111Z,1.00
2022-09-05T11:41:28.497Z,1.20
2022-09-05T11:42:26.397Z,0.90
2022-09-05T11:43:26.375Z,0.90
2022-09-05T11:44:27.281Z,1.00
2022-09-05T11:45:26.362Z,1.00
2022-09-05T11:46:26.433Z,0.90
2022-09-05T11:47:27.962Z,1.00
2022-09-05T11:48:27.335Z,1.00
2022-09-05T11:49:26.295Z,1.00
2022-09-05T11:50:26.294Z,1.00
2022-09-05T11:51:33.784Z,1.10
2022-09-05T11:52:27.289Z,1.00
2022-09-05T11:53:26.257Z,1.00
2022-09-05T11:54:26.248Z,1.00
2022-09-05T11:55:26.231Z,1.10
2022-09-05T11:56:28.872Z,1.00
2022-09-05T11:57:33.119Z,1.00
2022-09-05T11:58:44.515Z,1.00
2022-09-05T11:59:33.707Z,1.00
2022-09-05T12:00:32.919Z,1.00
2022-09-05T12:01:41.544Z,1.00
2022-09-05T12:02:27.170Z,1.00
2022-09-05T12:03:53.551Z,0.90
2022-09-05T12:04:27.116Z,0.90
2022-09-05T12:05:49.120Z,1.00
2022-09-05T12:06:27.123Z,0.90
2022-09-05T12:07:31.647Z,0.90
2022-09-05T12:08:28.695Z,0.90
2022-09-05T12:09:26.062Z,0.90
2022-09-05T12:10:46.910Z,0.90
2022-09-05T12:11:27.025Z,0.90
2022-09-05T12:12:41.474Z,0.80
2022-09-05T12:14:27.062Z,0.90
2022-09-05T12:15:25.961Z,0.80
2022-09-05T12:16:26.904Z,0.90
2022-09-05T12:17:35.254Z,0.80
2022-09-05T12:19:37.096Z,0.80
2022-09-05T12:20:43.092Z,0.80
2022-09-05T12:22:38.048Z,0.80
2022-09-05T12:25:23.678Z,0.90
2022-09-05T12:27:36.006Z,0.80
2022-09-05T12:27:40.625Z,0.90
2022-09-05T12:27:46.066Z,0.90
2022-09-05T12:29:26.166Z,0.90
2022-09-05T12:30:55.153Z,0.80
2022-09-05T12:33:32.727Z,0.90
2022-09-05T12:35:35.294Z,0.90
2022-09-05T12:36:04.140Z,0.80
2022-09-05T12:36:07.010Z,0.80
2022-09-05T12:36:07.463Z,0.80
2022-09-05T12:39:01.381Z,0.80
2022-09-05T12:40:44.663Z,0.80
2022-09-05T12:40:56.745Z,0.80
2022-09-05T12:40:59.581Z,0.80
2022-09-05T12:41:35.133Z,0.80
2022-09-05T12:41:41.113Z,0.90
2022-09-05T12:41:41.475Z,0.80
2022-09-05T12:41:41.893Z,0.80
2022-09-05T12:42:09.561Z,0.70
2022-09-05T12:42:10.735Z,0.80
2022-09-05T12:42:54.791Z,0.70
2022-09-05T12:44:29.862Z,0.80
2022-09-05T12:44:44.306Z,0.70
2022-09-05T12:45:38.244Z,0.70
2022-09-05T12:46:36.732Z,0.70
2022-09-05T12:47:36.709Z,0.80
2022-09-05T12:48:39.110Z,0.70
2022-09-05T12:49:36.697Z,0.70
2022-09-05T12:50:36.671Z,0.90
2022-09-05T12:51:46.896Z,0.70
2022-09-05T12:52:37.652Z,0.70
2022-09-05T12:53:36.651Z,0.80
2022-09-05T12:54:36.624Z,0.80
2022-09-05T12:55:36.654Z,0.70
2022-09-05T13:00:48.177Z,0.60
2022-09-05T13:02:55.480Z,0.60
2022-09-05T13:02:56.003Z,0.60
2022-09-05T13:02:57.392Z,0.70
2022-09-05T13:03:04.348Z,0.70
2022-09-05T13:03:05.549Z,0.70
2022-09-05T13:03:13.990Z,0.80
2022-09-05T13:03:53.418Z,0.70
2022-09-05T13:04:38.066Z,0.80
2022-09-05T13:05:37.575Z,0.70
2022-09-05T13:06:36.619Z,0.80
2022-09-05T13:07:37.302Z,0.70
2022-09-05T13:08:36.488Z,0.70
2022-09-05T13:12:23.449Z,0.70
2022-09-05T13:12:37.387Z,0.70
2022-09-05T13:13:10.276Z,0.70
2022-09-05T13:14:48.266Z,0.60
2022-09-05T13:14:54.321Z,0.70
2022-09-05T13:15:07.586Z,0.70
2022-09-05T13:15:37.385Z,0.70
2022-09-05T13:16:36.378Z,0.70
2022-09-05T13:17:36.325Z,0.70
2022-09-05T13:18:37.401Z,0.60
2022-09-05T13:19:36.329Z,0.60
2022-09-05T13:20:36.299Z,0.60
2022-09-05T13:21:36.289Z,0.70
2022-09-05T13:22:37.043Z,0.70